Overview Statistics Trail Chart Weather Telemetry Raw packets
 

This is the latest recevied weather packets stored in our database for station/object C31FR-13. If no packets are shown the sender has not sent any weather packets the latest 10 day(s).

<< 5 6 7 8 9 10 11 >>
Time Temp. Humidity Pressure Rain* Wind** Luminosity Snow
1788454262 32.78° C 26% 1023.7 hPa - - - -
1788453962 32.78° C 26% 1023.7 hPa - - - -
1788453062 33.33° C 25% 1023.6 hPa - - - -
1788452462 33.33° C 25% 1023.7 hPa - - - -
1788451562 33.33° C 25% 1023.6 hPa - - - -
1788450962 32.78° C 25% 1023.5 hPa - - - -
1788450362 32.78° C 25% 1023.5 hPa - - - -
1788447362 31.67° C 25% 1023.7 hPa - - - -
1788446763 31.67° C 26% 1023.7 hPa - - - -
1788446162 31.11° C 25% 1023.7 hPa - - - -
1788445262 31.11° C 26% 1023.8 hPa - - - -
1788443762 30° C 26% 1024 hPa - - - -
1788442862 30° C 27% 1024.2 hPa - - - -
1788439862 28.89° C 27% 1024.5 hPa - - - -
1788438662 28.89° C 29% 1024.7 hPa - - - -
1788436562 27.78° C 31% 1025 hPa - - - -
1788435962 27.78° C 32% 1025.1 hPa - - - -
1788435363 27.22° C 33% 1025.1 hPa - - - -
1788434462 26.67° C 37% 1025.3 hPa - - - -
1788432362 25.56° C 43% 1025.7 hPa - - - -
1788429362 23.89° C 49% 1026.5 hPa - - - -
1788425762 22.22° C 54% 1026.8 hPa - - - -
1788425462 22.22° C 54% 1026.8 hPa - - - -
1788424262 21.67° C 57% 1026.7 hPa - - - -
1788423962 21.67° C 58% 1026.7 hPa - - - -

* Rain since midnight (hover to see other rain measurements)
** Current wind speed in m/s (hover to see current wind gust speed)